createdAt,value
2022-10-25T00:06:02.016Z,3.03
2022-10-25T00:17:11.562Z,2.80
2022-10-25T00:20:01.803Z,2.90
2022-10-25T00:22:55.174Z,3.17
2022-10-25T00:26:14.284Z,2.73
2022-10-25T00:33:14.604Z,3.00
2022-10-25T00:52:51.343Z,3.10
2022-10-25T00:56:43.595Z,3.45
2022-10-25T01:14:33.380Z,3.90
2022-10-25T01:18:57.022Z,3.30
2022-10-25T01:27:06.008Z,3.72
2022-10-25T01:34:54.073Z,3.20
2022-10-25T01:47:38.694Z,3.83
2022-10-25T01:51:16.100Z,3.47
2022-10-25T01:54:53.169Z,4.20
2022-10-25T02:09:40.834Z,4.07
2022-10-25T02:14:37.752Z,3.50
2022-10-25T02:16:40.386Z,3.53
2022-10-25T02:19:41.821Z,3.20
2022-10-25T02:22:38.358Z,3.50
2022-10-25T02:25:45.956Z,3.95
2022-10-25T02:35:41.777Z,3.80
2022-10-25T02:42:12.449Z,4.22
2022-10-25T02:45:15.106Z,3.97
2022-10-25T02:48:53.359Z,4.80
2022-10-25T02:51:44.932Z,3.70
2022-10-25T02:55:59.379Z,4.28
2022-10-25T03:05:23.186Z,3.88
2022-10-25T03:12:39.981Z,4.55
2022-10-25T03:16:27.164Z,3.70
2022-10-25T03:19:25.308Z,3.70
2022-10-25T03:22:21.165Z,4.43
2022-10-25T03:25:17.937Z,4.35
2022-10-25T03:28:35.964Z,4.30
2022-10-25T03:31:50.055Z,4.20
2022-10-25T03:35:06.122Z,3.95
2022-10-25T03:38:04.887Z,3.85
2022-10-25T03:41:27.543Z,3.92
2022-10-25T03:44:31.994Z,4.13
2022-10-25T03:54:44.316Z,4.18
2022-10-25T03:57:34.181Z,4.32
2022-10-25T04:03:09.452Z,4.57
2022-10-25T04:06:14.557Z,3.92
2022-10-25T04:09:07.950Z,3.85
2022-10-25T04:11:58.291Z,3.57
2022-10-25T04:15:16.046Z,4.35
2022-10-25T04:18:10.569Z,3.88
2022-10-25T04:21:03.454Z,4.60
2022-10-25T04:23:52.027Z,4.50
2022-10-25T04:26:40.491Z,4.20
2022-10-25T04:29:34.136Z,4.63
2022-10-25T04:32:27.068Z,4.38
2022-10-25T04:35:28.657Z,5.18
2022-10-25T04:38:18.769Z,5.22
2022-10-25T04:41:06.935Z,5.47
2022-10-25T04:43:55.290Z,5.90
2022-10-25T04:46:50.455Z,5.50
2022-10-25T04:49:44.528Z,5.57
2022-10-25T04:52:38.285Z,6.07
2022-10-25T04:55:29.575Z,6.22
2022-10-25T04:58:18.456Z,6.38
2022-10-25T05:01:14.096Z,6.88
2022-10-25T05:04:05.527Z,7.35
2022-10-25T05:06:57.743Z,6.75
2022-10-25T05:09:58.949Z,7.80
2022-10-25T05:12:57.797Z,6.28
2022-10-25T05:16:07.191Z,6.65
2022-10-25T05:18:56.424Z,7.13
2022-10-25T05:21:44.712Z,6.65
2022-10-25T05:27:52.238Z,6.93
2022-10-25T05:30:46.347Z,5.82
2022-10-25T05:33:37.718Z,5.88
2022-10-25T06:02:16.242Z,6.15
2022-10-25T06:08:45.754Z,6.55
2022-10-25T06:09:20.516Z,7.22
2022-10-25T06:12:34.877Z,7.68
2022-10-25T06:41:39.139Z,6.70
2022-10-25T06:44:34.652Z,6.68
2022-10-25T06:50:49.827Z,7.43
2022-10-25T06:53:46.615Z,6.85
2022-10-25T06:56:58.023Z,6.78
2022-10-25T07:00:18.336Z,6.68
2022-10-25T09:30:13.459Z,7.55
2022-10-25T10:03:15.346Z,8.07
2022-10-25T14:50:40.519Z,1.65
2022-10-25T15:01:12.636Z,2.33
2022-10-25T15:34:05.705Z,2.50
2022-10-25T15:37:06.387Z,2.22
2022-10-25T15:40:23.401Z,2.20
2022-10-25T16:42:03.187Z,2.47
2022-10-25T16:45:04.763Z,2.53
2022-10-25T16:48:12.557Z,2.83
2022-10-25T16:51:07.397Z,2.65
2022-10-25T16:53:55.658Z,3.25
2022-10-25T16:56:48.386Z,2.58
2022-10-25T16:59:36.533Z,3.30
2022-10-25T17:02:27.901Z,3.13
2022-10-25T17:05:50.454Z,2.60
2022-10-25T17:08:54.258Z,2.67
2022-10-25T17:11:42.767Z,2.92
2022-10-25T17:14:30.807Z,2.80
2022-10-25T17:17:21.065Z,3.72
2022-10-25T17:20:10.736Z,3.22
2022-10-25T17:22:58.793Z,3.17
2022-10-25T17:26:00.842Z,3.40
2022-10-25T17:28:57.128Z,4.35
2022-10-25T17:31:46.214Z,4.45
2022-10-25T17:34:37.099Z,3.85
2022-10-25T17:37:27.306Z,3.95
2022-10-25T17:40:15.213Z,4.65
2022-10-25T17:43:03.945Z,5.57
2022-10-25T17:45:51.895Z,5.22
2022-10-25T17:48:40.524Z,5.78
2022-10-25T17:51:36.001Z,5.82
2022-10-25T17:54:23.885Z,6.10
2022-10-25T17:57:13.066Z,5.80
2022-10-25T18:00:32.524Z,5.90
2022-10-25T18:03:20.598Z,6.05
2022-10-25T18:06:14.304Z,6.90
2022-10-25T18:09:04.924Z,10.43
2022-10-25T18:11:52.647Z,11.23
2022-10-25T18:14:40.400Z,10.15
2022-10-25T18:17:30.881Z,9.65
2022-10-25T18:20:19.034Z,11.90
2022-10-25T18:23:09.837Z,14.05
2022-10-25T18:26:00.937Z,14.57
2022-10-25T18:28:52.940Z,11.88
2022-10-25T18:31:41.025Z,11.10
2022-10-25T18:34:29.111Z,10.50
2022-10-25T18:37:17.023Z,10.50
2022-10-25T18:40:05.960Z,9.10
2022-10-25T18:42:53.915Z,9.75
2022-10-25T18:45:44.578Z,9.25
2022-10-25T18:48:34.874Z,10.00
2022-10-25T18:51:30.155Z,9.02
2022-10-25T18:54:18.781Z,8.70
2022-10-25T18:57:28.710Z,9.68
2022-10-25T19:02:54.489Z,9.23
2022-10-25T19:05:45.667Z,8.90
2022-10-25T19:08:35.500Z,8.23
2022-10-25T19:11:23.912Z,8.45
2022-10-25T19:14:14.484Z,8.05
2022-10-25T19:17:02.490Z,8.32
2022-10-25T19:19:50.562Z,9.05
2022-10-25T19:22:47.266Z,9.00
2022-10-25T19:25:38.596Z,10.07
2022-10-25T19:28:31.457Z,9.73
2022-10-25T19:31:19.140Z,9.32
2022-10-25T19:34:06.995Z,10.02
2022-10-25T19:36:56.988Z,10.38
2022-10-25T19:39:47.089Z,11.32
2022-10-25T19:42:35.030Z,9.32
2022-10-25T19:45:23.981Z,10.55
2022-10-25T19:48:12.368Z,10.35
2022-10-25T19:51:13.987Z,10.32
2022-10-25T19:54:03.050Z,9.60
2022-10-25T19:56:51.580Z,8.88
2022-10-25T19:59:39.738Z,9.13
2022-10-25T20:02:33.674Z,8.45
2022-10-25T20:05:22.554Z,8.55
2022-10-25T20:08:10.282Z,8.80
2022-10-25T20:10:58.404Z,8.98
2022-10-25T20:13:46.619Z,10.40
2022-10-25T20:16:34.900Z,10.15
2022-10-25T20:19:28.342Z,8.43
2022-10-25T20:22:19.281Z,8.80
2022-10-25T20:25:08.200Z,8.85
2022-10-25T20:27:59.609Z,8.30
2022-10-25T20:30:48.732Z,8.43
2022-10-25T20:33:40.147Z,7.68
2022-10-25T20:36:55.470Z,8.50
2022-10-25T20:39:46.255Z,8.35
2022-10-25T20:42:34.608Z,8.40
2022-10-25T20:45:24.994Z,8.18
2022-10-25T20:48:15.911Z,8.73
2022-10-25T20:51:11.439Z,8.35
2022-10-25T20:54:01.438Z,7.47
2022-10-25T20:56:52.359Z,8.23
2022-10-25T20:59:42.902Z,6.72
2022-10-25T21:02:31.752Z,7.43
2022-10-25T21:05:19.709Z,6.90
2022-10-25T21:08:07.763Z,7.05
2022-10-25T21:11:06.093Z,7.50
2022-10-25T21:13:53.941Z,7.55
2022-10-25T21:16:41.996Z,7.25
2022-10-25T21:19:29.914Z,7.43
2022-10-25T21:22:17.797Z,7.13
2022-10-25T21:25:14.099Z,6.75
2022-10-25T21:28:02.340Z,7.40
2022-10-25T21:30:55.283Z,7.22
2022-10-25T21:33:51.205Z,8.95
2022-10-25T21:36:39.049Z,8.40
2022-10-25T21:39:27.243Z,7.70
2022-10-25T21:42:15.435Z,7.80
2022-10-25T21:45:05.615Z,7.50
2022-10-25T21:47:53.397Z,7.53
2022-10-25T21:50:41.857Z,8.50
2022-10-25T21:53:33.044Z,8.73
2022-10-25T21:56:31.210Z,8.25
2022-10-25T21:59:20.617Z,7.82
2022-10-25T22:02:08.834Z,9.05
2022-10-25T22:04:56.753Z,9.07
2022-10-25T22:07:44.500Z,9.20
2022-10-25T22:10:32.201Z,8.90
2022-10-25T22:13:19.853Z,8.27
2022-10-25T22:16:17.763Z,9.38
2022-10-25T22:19:14.181Z,9.05
2022-10-25T22:22:02.007Z,8.98
2022-10-25T22:24:49.828Z,9.80
2022-10-25T22:27:37.714Z,10.43
2022-10-25T22:30:25.456Z,9.02
2022-10-25T22:33:13.183Z,10.02
2022-10-25T22:36:10.060Z,9.10
2022-10-25T22:38:58.047Z,9.48
2022-10-25T22:41:50.168Z,9.73
2022-10-25T22:44:40.588Z,9.75
2022-10-25T22:47:28.330Z,9.95
2022-10-25T22:50:16.365Z,10.57
2022-10-25T22:53:04.155Z,9.68
2022-10-25T22:55:58.294Z,9.98
2022-10-25T22:58:51.092Z,8.93
2022-10-25T23:01:39.045Z,8.80
2022-10-25T23:04:26.980Z,9.05
2022-10-25T23:07:14.779Z,8.60
2022-10-25T23:10:02.558Z,8.18
2022-10-25T23:12:50.459Z,8.77
2022-10-25T23:15:38.983Z,8.75
2022-10-25T23:18:30.454Z,7.47
2022-10-25T23:21:20.619Z,7.50
2022-10-25T23:24:09.900Z,8.27
2022-10-25T23:26:57.526Z,8.43
2022-10-25T23:29:45.261Z,9.32
2022-10-25T23:32:32.843Z,9.82
2022-10-25T23:35:20.729Z,9.82
2022-10-25T23:38:11.798Z,9.13
2022-10-25T23:40:59.567Z,8.80
2022-10-25T23:43:47.425Z,8.68
2022-10-25T23:46:35.281Z,8.30
2022-10-25T23:49:23.005Z,9.10
2022-10-25T23:52:10.564Z,9.45
2022-10-25T23:54:58.477Z,9.13
2022-10-25T23:57:46.157Z,8.55
